createdAt,value
2019-02-12T00:00:39.764Z,102144.56
2019-02-12T00:03:28.632Z,102140.77
2019-02-12T00:06:17.472Z,102112.09
2019-02-12T00:12:15.802Z,102164.32
2019-02-12T00:18:20.666Z,102185.47
2019-02-12T00:21:09.617Z,102192.08
2019-02-12T00:23:58.445Z,102188.02
2019-02-12T00:26:39.858Z,102189.44
2019-02-12T00:29:28.704Z,102199.55
2019-02-12T00:32:17.680Z,102208.30
2019-02-12T00:38:21.771Z,102203.51
2019-02-12T00:41:10.580Z,102197.27
2019-02-12T00:43:59.439Z,102154.86
2019-02-12T00:46:48.311Z,102199.78
2019-02-12T00:49:37.138Z,102207.17
2019-02-12T00:52:25.986Z,102200.13
2019-02-12T00:55:14.801Z,102197.13
2019-02-12T00:58:03.641Z,102212.41
2019-02-12T01:01:11.577Z,102142.29
2019-02-12T01:03:53.529Z,102223.61
2019-02-12T01:06:42.392Z,102222.82
2019-02-12T01:09:31.209Z,102222.59
2019-02-12T01:12:20.073Z,102220.15
2019-02-12T01:15:02.208Z,102213.56
2019-02-12T01:17:51.041Z,102221.75
2019-02-12T01:20:39.979Z,102225.03
2019-02-12T01:23:28.840Z,102228.27
2019-02-12T01:26:10.229Z,102225.55
2019-02-12T01:28:59.098Z,102223.09
2019-02-12T01:31:47.954Z,102231.50
2019-02-12T01:34:36.767Z,102232.29
2019-02-12T01:37:25.663Z,102232.27
2019-02-12T01:40:14.523Z,102175.48
2019-02-12T01:43:24.303Z,102239.58
2019-02-12T01:46:13.129Z,102240.59
2019-02-12T01:49:01.966Z,102236.22
2019-02-12T01:51:50.948Z,102234.84
2019-02-12T01:54:54.473Z,102238.63
2019-02-12T01:57:11.071Z,102235.56
2019-02-12T01:59:59.929Z,102236.90
2019-02-12T02:02:48.797Z,102231.67
2019-02-12T02:05:30.652Z,102238.78
2019-02-12T02:08:19.499Z,102239.02
2019-02-12T02:11:08.347Z,102232.75
2019-02-12T02:13:57.214Z,102242.30
2019-02-12T02:16:46.091Z,102238.44
2019-02-12T02:19:34.937Z,102237.63
2019-02-12T02:22:23.779Z,102233.74
2019-02-12T02:25:33.498Z,102247.58
2019-02-12T02:28:22.370Z,102240.41
2019-02-12T02:31:11.169Z,102229.05
2019-02-12T02:34:00.052Z,102239.17
2019-02-12T02:36:48.875Z,102243.17
2019-02-12T02:39:37.722Z,102240.29
2019-02-12T02:42:26.610Z,102242.05
2019-02-12T02:45:15.512Z,102244.88
2019-02-12T02:48:04.592Z,102247.22
2019-02-12T02:50:53.405Z,102254.41
2019-02-12T02:53:42.269Z,102256.48
2019-02-12T02:56:31.070Z,102260.54
2019-02-12T02:59:19.923Z,102257.52
2019-02-12T03:02:08.734Z,102264.63
2019-02-12T03:04:50.819Z,102273.60
2019-02-12T03:07:39.708Z,102258.69
2019-02-12T03:10:28.543Z,102268.52
2019-02-12T03:13:17.401Z,102266.38
2019-02-12T03:16:06.309Z,102272.70
2019-02-12T03:18:55.123Z,102283.10
2019-02-12T03:21:43.952Z,102259.50
2019-02-12T03:24:32.820Z,102264.43
2019-02-12T03:27:21.660Z,102269.39
2019-02-12T03:30:31.485Z,102250.46
2019-02-12T03:33:20.315Z,102191.73
2019-02-12T03:36:09.130Z,102274.34
2019-02-12T03:38:57.980Z,102274.94
2019-02-12T03:41:46.817Z,102277.14
2019-02-12T03:44:35.625Z,102290.50
2019-02-12T03:47:24.482Z,102285.60
2019-02-12T03:50:13.479Z,102289.13
2019-02-12T03:53:02.310Z,102209.17
2019-02-12T03:55:51.195Z,102289.88
2019-02-12T03:58:40.110Z,102285.44
2019-02-12T04:01:28.976Z,102284.56
2019-02-12T04:03:58.555Z,102287.58
2019-02-12T04:06:38.318Z,102300.13
2019-02-12T04:09:27.219Z,102300.70
2019-02-12T04:12:16.042Z,102297.80
2019-02-12T04:15:05.653Z,102295.94
2019-02-12T04:17:54.512Z,102308.00
2019-02-12T04:23:52.709Z,102306.45
2019-02-12T04:26:41.567Z,102305.18
2019-02-12T04:29:30.549Z,102300.09
2019-02-12T04:32:19.385Z,102291.72
2019-02-12T04:35:08.321Z,102292.88
2019-02-12T04:37:57.120Z,102284.50
2019-02-12T04:40:46.741Z,102286.22
2019-02-12T04:43:35.604Z,102290.89
2019-02-12T04:46:24.705Z,102291.17
2019-02-12T04:49:13.534Z,102291.17
2019-02-12T04:52:02.461Z,102294.97
2019-02-12T04:54:51.263Z,102294.39
2019-02-12T04:57:40.131Z,102305.00
2019-02-12T05:00:28.952Z,102301.41
2019-02-12T05:03:17.831Z,102299.17
2019-02-12T05:05:59.710Z,102206.91
2019-02-12T05:09:27.241Z,102210.31
2019-02-12T05:12:17.343Z,102206.06
2019-02-12T05:18:22.737Z,102306.55
2019-02-12T05:21:11.567Z,102314.33
2019-02-12T05:23:53.370Z,102312.02
2019-02-12T05:26:56.923Z,102312.98
2019-02-12T05:32:48.425Z,102309.28
2019-02-12T05:35:37.278Z,102317.89
2019-02-12T05:38:26.116Z,102319.73
2019-02-12T05:41:15.027Z,102328.91
2019-02-12T05:44:03.959Z,102327.77
2019-02-12T05:46:52.803Z,102327.73
2019-02-12T05:49:41.609Z,102324.94
2019-02-12T05:52:30.479Z,102321.34
2019-02-12T05:55:19.313Z,102328.91
2019-02-12T05:58:08.193Z,102323.43
2019-02-12T06:00:56.993Z,102324.72
2019-02-12T06:03:45.861Z,102329.57
2019-02-12T06:06:27.972Z,102333.06
2019-02-12T06:09:16.826Z,102330.89
2019-02-12T06:12:05.710Z,102324.09
2019-02-12T06:14:54.616Z,102322.95
2019-02-12T06:17:43.418Z,102325.67
2019-02-12T06:20:32.310Z,102296.59
2019-02-12T06:23:21.116Z,102332.48
2019-02-12T06:26:10.201Z,102334.42
2019-02-12T06:28:39.696Z,102331.48
2019-02-12T06:31:28.554Z,102323.84
2019-02-12T06:37:13.467Z,102323.36
2019-02-12T06:40:02.362Z,102335.90
2019-02-12T06:42:51.192Z,102337.04
2019-02-12T06:45:40.068Z,102261.66
2019-02-12T06:48:09.572Z,102341.64
2019-02-12T06:50:39.190Z,102344.06
2019-02-12T06:53:28.058Z,102349.80
2019-02-12T06:55:57.514Z,102357.97
2019-02-12T06:58:27.030Z,102348.14
2019-02-12T07:00:56.472Z,102359.03
2019-02-12T07:04:06.251Z,102365.06
2019-02-12T07:06:52.463Z,102373.52
2019-02-12T07:10:02.253Z,102343.80
2019-02-12T07:13:12.034Z,102380.91
2019-02-12T07:15:53.618Z,102354.55
2019-02-12T07:19:10.825Z,102377.53
2019-02-12T07:22:20.616Z,102383.34
2019-02-12T07:25:30.428Z,102390.52
2019-02-12T07:29:02.239Z,102375.18
2019-02-12T07:32:12.086Z,102396.59
2019-02-12T07:35:39.593Z,102342.18
2019-02-12T07:38:49.357Z,102409.25
2019-02-12T07:41:59.119Z,102417.78
2019-02-12T07:45:26.641Z,102424.41
2019-02-12T07:48:54.166Z,102430.25
2019-02-12T07:52:03.892Z,102433.67
2019-02-12T07:55:35.446Z,102432.78
2019-02-12T07:59:02.985Z,102447.91
2019-02-12T08:02:30.542Z,102447.73
2019-02-12T08:09:35.242Z,102453.81
2019-02-12T08:13:02.783Z,102464.63
2019-02-12T08:16:30.302Z,102441.59
2019-02-12T08:19:57.812Z,102477.01
2019-02-12T08:23:29.363Z,102484.02
2019-02-12T08:30:34.369Z,102461.27
2019-02-12T08:34:05.881Z,102479.30
2019-02-12T08:37:15.654Z,102470.69
2019-02-12T08:40:43.203Z,102482.56
2019-02-12T08:43:52.961Z,102477.20
2019-02-12T08:47:02.756Z,102466.77
2019-02-12T08:50:32.414Z,102486.64
2019-02-12T08:53:50.029Z,102486.72
2019-02-12T08:56:53.364Z,102491.80
2019-02-12T09:00:20.889Z,102498.45
2019-02-12T09:03:30.622Z,102400.95
2019-02-12T09:06:14.282Z,102497.60
2019-02-12T09:09:24.028Z,102499.89
2019-02-12T09:12:51.569Z,102411.11
2019-02-12T09:16:19.118Z,102507.98
2019-02-12T09:19:28.891Z,102506.48
2019-02-12T09:22:38.593Z,102511.55
2019-02-12T09:25:48.358Z,102509.77
2019-02-12T09:28:58.163Z,102518.37
2019-02-12T09:32:07.900Z,102521.52
2019-02-12T09:35:17.686Z,102520.57
2019-02-12T09:38:01.297Z,102524.76
2019-02-12T09:41:11.071Z,102528.42
2019-02-12T09:44:20.892Z,102519.20
2019-02-12T09:51:04.510Z,102518.86
2019-02-12T09:54:14.360Z,102530.67
2019-02-12T09:57:24.125Z,102523.89
2019-02-12T10:00:33.885Z,102532.16
2019-02-12T10:03:43.670Z,102532.26
2019-02-12T10:07:05.374Z,102534.78
2019-02-12T10:10:22.737Z,102534.04
2019-02-12T10:17:09.085Z,102531.78
2019-02-12T10:20:36.594Z,102531.33
2019-02-12T10:23:37.736Z,102533.36
2019-02-12T10:26:47.485Z,102538.94
2019-02-12T10:29:57.283Z,102535.45
2019-02-12T10:32:46.192Z,102450.95
2019-02-12T10:35:35.072Z,102533.44
2019-02-12T10:38:23.998Z,102539.04
2019-02-12T10:40:53.490Z,102540.73
2019-02-12T10:43:42.361Z,102544.40
2019-02-12T10:46:31.189Z,102547.21
2019-02-12T10:49:20.019Z,102534.66
2019-02-12T10:51:51.000Z,102541.86
2019-02-12T10:54:40.130Z,102530.11
2019-02-12T10:57:28.981Z,102533.69
2019-02-12T11:00:17.988Z,102526.61
2019-02-12T11:03:06.780Z,102534.11
2019-02-12T11:05:55.661Z,102543.20
2019-02-12T11:08:37.570Z,102544.63
2019-02-12T11:11:26.573Z,102467.86
2019-02-12T11:14:15.461Z,102529.59
2019-02-12T11:17:04.379Z,102527.15
2019-02-12T11:19:53.189Z,102530.19
2019-02-12T11:22:22.953Z,102527.18
2019-02-12T11:24:59.546Z,102524.98
2019-02-12T11:27:48.466Z,102529.97
2019-02-12T11:30:37.348Z,102526.14
2019-02-12T11:33:26.351Z,102520.09
2019-02-12T11:36:15.180Z,102510.48
2019-02-12T11:39:24.744Z,102510.24
2019-02-12T11:42:13.233Z,102509.71
2019-02-12T11:44:42.805Z,102510.81
2019-02-12T11:47:31.736Z,102507.52
2019-02-12T11:56:40.075Z,102506.43
2019-02-12T11:59:28.913Z,102511.11
2019-02-12T12:05:13.885Z,102511.11
2019-02-12T12:07:43.408Z,102513.30
2019-02-12T12:10:32.332Z,102518.53
2019-02-12T12:13:21.268Z,102518.53
2019-02-12T12:55:43.280Z,102492.69
2019-02-12T12:58:25.298Z,102495.16
2019-02-12T13:01:14.148Z,102482.50
2019-02-12T13:03:43.602Z,102428.36
2019-02-12T13:06:32.445Z,102483.59
2019-02-12T13:09:21.304Z,102491.29
2019-02-12T13:12:10.216Z,102495.96
2019-02-12T13:14:59.043Z,102490.98
2019-02-12T13:17:47.933Z,102481.36
2019-02-12T13:20:36.841Z,102480.26
2019-02-12T13:23:25.647Z,102481.91
2019-02-12T13:26:07.140Z,102480.82
2019-02-12T13:28:55.996Z,102481.08
2019-02-12T13:31:44.987Z,102485.48
2019-02-12T13:34:33.869Z,102493.20
2019-02-12T13:37:22.669Z,102405.54
2019-02-12T13:40:32.417Z,102449.23
2019-02-12T13:43:21.357Z,102484.66
2019-02-12T13:46:10.290Z,102486.05
2019-02-12T13:48:59.110Z,102486.87
2019-02-12T13:51:47.995Z,102494.56
2019-02-12T13:54:36.814Z,102486.32
2019-02-12T13:57:25.684Z,102486.32
2019-02-12T14:00:33.928Z,102492.62
2019-02-12T14:03:22.931Z,102498.67
2019-02-12T14:09:04.811Z,102498.14
2019-02-12T14:11:53.733Z,102493.17
2019-02-12T14:14:42.598Z,102508.86
2019-02-12T14:17:31.493Z,102499.49
2019-02-12T14:20:20.399Z,102498.39
2019-02-12T14:23:09.221Z,102503.90
2019-02-12T14:25:58.079Z,102499.50
2019-02-12T14:28:46.960Z,102500.86
2019-02-12T14:31:35.782Z,102490.13
2019-02-12T14:34:24.685Z,102496.72
2019-02-12T14:40:22.919Z,102496.96
2019-02-12T14:43:14.145Z,102489.81
2019-02-12T14:46:02.416Z,102499.99
2019-02-12T14:48:52.871Z,102498.88
2019-02-12T14:51:41.789Z,102502.98
2019-02-12T14:54:30.589Z,102433.50
2019-02-12T14:57:19.615Z,102509.33
2019-02-12T15:00:27.717Z,102499.97
2019-02-12T15:03:16.644Z,102499.41
2019-02-12T15:06:05.510Z,102507.13
2019-02-12T15:08:47.161Z,102507.13
2019-02-12T15:11:36.102Z,102494.73
2019-02-12T15:14:24.949Z,102504.64
2019-02-12T15:17:13.795Z,102496.41
2019-02-12T15:20:02.601Z,102493.10
2019-02-12T15:22:51.446Z,102489.00
2019-02-12T15:25:41.927Z,102488.19
2019-02-12T15:28:30.984Z,102494.50
2019-02-12T15:31:19.820Z,102472.81
2019-02-12T15:37:04.029Z,102493.12
2019-02-12T15:40:13.771Z,102495.88
2019-02-12T15:43:02.618Z,102496.17
2019-02-12T15:45:51.505Z,102501.14
2019-02-12T15:48:40.385Z,102502.23
2019-02-12T15:51:29.194Z,102498.94
2019-02-12T15:53:58.678Z,102501.97
2019-02-12T15:56:28.184Z,102507.77
2019-02-12T15:58:57.756Z,102508.05
2019-02-12T16:01:30.227Z,102510.28
2019-02-12T16:04:00.258Z,102504.47
2019-02-12T16:06:29.863Z,102515.22
2019-02-12T16:08:59.327Z,102504.73
2019-02-12T16:11:30.278Z,102502.84
2019-02-12T16:13:59.767Z,102501.18
2019-02-12T16:16:30.133Z,102499.28
2019-02-12T16:19:00.476Z,102507.81
2019-02-12T16:21:29.982Z,102503.97
2019-02-12T16:23:59.551Z,102500.68
2019-02-12T16:26:35.434Z,102499.00
2019-02-12T16:29:04.952Z,102504.50
2019-02-12T16:31:34.622Z,102509.18
2019-02-12T16:34:04.130Z,102505.61
2019-02-12T16:36:58.267Z,102511.66
2019-02-12T16:39:07.289Z,102513.84
2019-02-12T16:41:36.790Z,102523.45
2019-02-12T16:44:06.318Z,102525.08
2019-02-12T16:46:35.841Z,102528.09
2019-02-12T16:49:05.334Z,102531.36
2019-02-12T16:51:34.790Z,102530.52
2019-02-12T16:54:04.346Z,102538.97
2019-02-12T16:56:33.823Z,102540.87
2019-02-12T16:59:03.849Z,102538.36
2019-02-12T17:01:33.394Z,102542.44
2019-02-12T17:04:04.420Z,102552.55
2019-02-12T17:06:34.006Z,102546.20
2019-02-12T17:09:04.561Z,102545.90
2019-02-12T17:11:34.032Z,102552.17
2019-02-12T17:14:03.680Z,102554.55
2019-02-12T17:16:36.236Z,102548.75
2019-02-12T17:19:05.828Z,102556.10
2019-02-12T17:21:35.321Z,102562.05
2019-02-12T17:24:04.800Z,102559.52
2019-02-12T17:26:34.318Z,102556.98
2019-02-12T17:29:03.850Z,102570.33
2019-02-12T17:31:33.402Z,102569.71
2019-02-12T17:34:02.924Z,102576.47
2019-02-12T17:36:32.410Z,102575.26
2019-02-12T17:39:01.890Z,102574.08
2019-02-12T17:41:31.368Z,102585.50
2019-02-12T17:44:00.910Z,102584.83
2019-02-12T17:46:30.428Z,102583.97
2019-02-12T17:48:59.876Z,102585.80
2019-02-12T17:51:29.364Z,102583.28
2019-02-12T17:53:58.870Z,102580.20
2019-02-12T17:56:28.371Z,102574.91
2019-02-12T17:58:57.931Z,102589.91
2019-02-12T18:01:27.470Z,102587.39
2019-02-12T18:03:56.980Z,102590.35
2019-02-12T18:06:29.493Z,102599.06
2019-02-12T18:08:59.053Z,102600.10
2019-02-12T18:11:28.558Z,102601.69
2019-02-12T18:13:58.040Z,102602.72
2019-02-12T18:16:27.555Z,102597.76
2019-02-12T18:18:59.994Z,102598.31
2019-02-12T18:21:29.540Z,102603.73
2019-02-12T18:23:59.050Z,102604.00
2019-02-12T18:26:33.287Z,102602.34
2019-02-12T18:28:59.712Z,102599.33
2019-02-12T18:31:29.194Z,102599.85
2019-02-12T18:33:58.766Z,102594.38
2019-02-12T18:36:28.242Z,102594.94
2019-02-12T18:38:57.809Z,102593.86
2019-02-12T18:41:27.281Z,102590.27
2019-02-12T18:43:56.786Z,102586.73
2019-02-12T18:46:29.050Z,102590.04
2019-02-12T18:49:00.065Z,102598.25
2019-02-12T18:51:29.522Z,102595.51
2019-02-12T18:53:59.044Z,102594.42
2019-02-12T18:56:28.615Z,102587.30
2019-02-12T18:58:58.097Z,102590.04
2019-02-12T19:01:27.748Z,102588.09
2019-02-12T19:03:57.283Z,102594.09
2019-02-12T19:06:26.800Z,102589.18
2019-02-12T19:08:56.266Z,102591.91
2019-02-12T19:11:25.817Z,102584.23
2019-02-12T19:13:55.447Z,102592.20
2019-02-12T19:16:24.966Z,102591.94
2019-02-12T19:18:56.094Z,102596.09
2019-02-12T19:21:25.650Z,102596.66
2019-02-12T19:23:55.143Z,102598.60
2019-02-12T19:26:24.678Z,102597.80
2019-02-12T19:28:54.145Z,102590.98
2019-02-12T19:31:23.634Z,102585.27
2019-02-12T19:33:53.100Z,102588.01
2019-02-12T19:36:22.611Z,102584.48
2019-02-12T19:38:52.130Z,102592.16
2019-02-12T19:41:21.599Z,102591.32
2019-02-12T19:43:51.107Z,102596.79
2019-02-12T19:46:20.610Z,102601.69
2019-02-12T19:48:50.144Z,102599.75
2019-02-12T19:51:19.670Z,102604.89
2019-02-12T19:53:49.159Z,102603.21
2019-02-12T19:56:18.666Z,102600.69
2019-02-12T19:58:48.148Z,102599.27
2019-02-12T20:01:17.643Z,102598.68
2019-02-12T20:03:47.201Z,102601.92
2019-02-12T20:06:16.735Z,102600.50
2019-02-12T20:08:46.213Z,102605.63
2019-02-12T20:11:15.719Z,102609.66
2019-02-12T20:13:45.203Z,102613.69
2019-02-12T20:16:16.319Z,102625.41
2019-02-12T20:18:45.842Z,102616.05
2019-02-12T20:21:15.378Z,102620.95
2019-02-12T20:23:44.885Z,102620.92
2019-02-12T20:26:14.397Z,102615.11
2019-02-12T20:28:45.665Z,102609.86
2019-02-12T20:31:15.213Z,102616.34
2019-02-12T20:33:44.715Z,102613.53
2019-02-12T20:36:14.270Z,102617.03
2019-02-12T20:38:43.791Z,102600.81
2019-02-12T20:41:13.354Z,102624.45
2019-02-12T20:43:42.952Z,102625.96
2019-02-12T20:46:12.522Z,102636.51
2019-02-12T20:48:42.084Z,102630.11
2019-02-12T20:51:11.712Z,102621.25
2019-02-12T20:53:41.244Z,102620.58
2019-02-12T20:56:10.821Z,102621.55
2019-02-12T20:58:40.297Z,102623.13
2019-02-12T21:01:09.816Z,102616.98
2019-02-12T21:03:39.426Z,102627.25
2019-02-12T21:06:08.956Z,102622.48
2019-02-12T21:08:38.455Z,102628.66
2019-02-12T21:11:10.049Z,102625.02
2019-02-12T21:13:39.129Z,102629.82
2019-02-12T21:16:09.142Z,102619.87
2019-02-12T21:18:38.654Z,102617.82
2019-02-12T21:21:08.202Z,102627.56
2019-02-12T21:23:37.860Z,102626.09
2019-02-12T21:26:07.428Z,102625.98
2019-02-12T21:28:36.926Z,102631.34
2019-02-12T21:31:06.488Z,102633.11
2019-02-12T21:33:37.531Z,102636.55
2019-02-12T21:36:07.022Z,102635.92
2019-02-12T21:38:36.552Z,102652.47
2019-02-12T21:41:06.007Z,102654.52
2019-02-12T21:43:35.468Z,102647.30
2019-02-12T21:46:05.024Z,102659.45
2019-02-12T21:48:34.490Z,102656.61
2019-02-12T21:51:05.380Z,102658.16
2019-02-12T21:53:34.818Z,102658.62
2019-02-12T21:56:04.380Z,102650.37
2019-02-12T21:58:33.845Z,102657.44
2019-02-12T22:01:05.983Z,102658.98
2019-02-12T22:03:35.479Z,102660.05
2019-02-12T22:06:05.040Z,102662.47
2019-02-12T22:08:34.499Z,102674.44
2019-02-12T22:11:04.008Z,102684.20
2019-02-12T22:13:33.495Z,102691.27
2019-02-12T22:16:03.025Z,102698.30
2019-02-12T22:18:32.587Z,102701.57
2019-02-12T22:21:02.064Z,102699.91
2019-02-12T22:23:31.546Z,102707.78
2019-02-12T22:26:01.090Z,102701.19
2019-02-12T22:28:30.579Z,102686.97
2019-02-12T22:31:00.075Z,102690.21
2019-02-12T22:33:29.557Z,102679.56
2019-02-12T22:35:59.067Z,102687.14
2019-02-12T22:38:28.612Z,102691.23
2019-02-12T22:40:58.108Z,102694.17
2019-02-12T22:43:27.562Z,102700.98
2019-02-12T22:45:57.052Z,102703.41
2019-02-12T22:48:26.614Z,102700.17
2019-02-12T22:50:56.143Z,102700.39
2019-02-12T22:53:25.635Z,102700.64
2019-02-12T22:55:55.105Z,102713.11
2019-02-12T22:58:24.688Z,102707.38
2019-02-12T23:01:01.506Z,102711.75
2019-02-12T23:03:31.131Z,102705.79
2019-02-12T23:06:00.688Z,102695.41
2019-02-12T23:08:30.155Z,102709.03
2019-02-12T23:10:59.714Z,102711.75
2019-02-12T23:13:29.232Z,102706.61
2019-02-12T23:15:58.754Z,102703.36
2019-02-12T23:18:28.344Z,102697.66
2019-02-12T23:20:57.835Z,102703.41
2019-02-12T23:23:27.327Z,102703.20
2019-02-12T23:25:56.809Z,102701.88
2019-02-12T23:28:26.265Z,102701.11
2019-02-12T23:30:55.789Z,102702.03
2019-02-12T23:33:25.252Z,102700.20
2019-02-12T23:35:54.706Z,102701.09
2019-02-12T23:38:24.190Z,102694.11
2019-02-12T23:40:53.666Z,102688.48
2019-02-12T23:43:23.161Z,102693.17
2019-02-12T23:45:52.629Z,102694.83
2019-02-12T23:48:22.081Z,102696.78
2019-02-12T23:50:51.601Z,102692.74
2019-02-12T23:53:21.062Z,102699.93
2019-02-12T23:55:50.578Z,102707.63
2019-02-12T23:58:20.080Z,102709.89
